sensor_id;sensor_type;location;lat;lon;timestamp;P1;durP1;ratioP1;P2;durP2;ratioP2
10391;SDS011;5242;49.244;6.774;2023-09-19T00:02:43;0.30;;;0.30;;
10391;SDS011;5242;49.244;6.774;2023-09-19T00:10:38;0.20;;;0.20;;
10391;SDS011;5242;49.244;6.774;2023-09-19T00:18:32;0.30;;;0.30;;
10391;SDS011;5242;49.244;6.774;2023-09-19T00:26:26;0.30;;;0.30;;
10391;SDS011;5242;49.244;6.774;2023-09-19T00:34:22;0.30;;;0.30;;
10391;SDS011;5242;49.244;6.774;2023-09-19T00:42:18;0.20;;;0.20;;
10391;SDS011;5242;49.244;6.774;2023-09-19T00:50:12;0.30;;;0.30;;
10391;SDS011;5242;49.244;6.774;2023-09-19T00:58:06;0.30;;;0.30;;
10391;SDS011;5242;49.244;6.774;2023-09-19T01:06:01;0.30;;;0.30;;
10391;SDS011;5242;49.244;6.774;2023-09-19T01:14:01;0.40;;;0.40;;
10391;SDS011;5242;49.244;6.774;2023-09-19T01:30:18;0.30;;;0.30;;
10391;SDS011;5242;49.244;6.774;2023-09-19T01:38:16;0.20;;;0.20;;
10391;SDS011;5242;49.244;6.774;2023-09-19T01:46:12;0.30;;;0.30;;
10391;SDS011;5242;49.244;6.774;2023-09-19T01:54:10;0.30;;;0.30;;
10391;SDS011;5242;49.244;6.774;2023-09-19T02:02:04;0.38;;;0.38;;
10391;SDS011;5242;49.244;6.774;2023-09-19T02:09:58;0.30;;;0.30;;
10391;SDS011;5242;49.244;6.774;2023-09-19T02:17:56;0.30;;;0.30;;
10391;SDS011;5242;49.244;6.774;2023-09-19T02:25:52;0.30;;;0.30;;
10391;SDS011;5242;49.244;6.774;2023-09-19T02:33:45;0.22;;;0.22;;
10391;SDS011;5242;49.244;6.774;2023-09-19T02:41:37;0.30;;;0.30;;
10391;SDS011;5242;49.244;6.774;2023-09-19T02:49:29;0.30;;;0.30;;
10391;SDS011;5242;49.244;6.774;2023-09-19T02:57:21;0.30;;;0.30;;
10391;SDS011;5242;49.244;6.774;2023-09-19T03:05:15;0.30;;;0.30;;
10391;SDS011;5242;49.244;6.774;2023-09-19T03:13:07;0.30;;;0.30;;
10391;SDS011;5242;49.244;6.774;2023-09-19T03:21:01;0.35;;;0.35;;
10391;SDS011;5242;49.244;6.774;2023-09-19T03:28:53;0.30;;;0.30;;
10391;SDS011;5242;49.244;6.774;2023-09-19T03:36:45;0.30;;;0.30;;
10391;SDS011;5242;49.244;6.774;2023-09-19T03:44:37;0.30;;;0.30;;
10391;SDS011;5242;49.244;6.774;2023-09-19T03:52:29;0.30;;;0.30;;
10391;SDS011;5242;49.244;6.774;2023-09-19T04:00:22;0.43;;;0.43;;
10391;SDS011;5242;49.244;6.774;2023-09-19T04:08:15;0.30;;;0.30;;
10391;SDS011;5242;49.244;6.774;2023-09-19T04:16:07;0.30;;;0.30;;
10391;SDS011;5242;49.244;6.774;2023-09-19T04:23:59;0.30;;;0.30;;
10391;SDS011;5242;49.244;6.774;2023-09-19T04:31:51;0.35;;;0.35;;
10391;SDS011;5242;49.244;6.774;2023-09-19T04:39:43;0.30;;;0.30;;
10391;SDS011;5242;49.244;6.774;2023-09-19T04:47:37;0.30;;;0.30;;
10391;SDS011;5242;49.244;6.774;2023-09-19T04:55:30;0.40;;;0.40;;
10391;SDS011;5242;49.244;6.774;2023-09-19T05:03:24;0.30;;;0.30;;
10391;SDS011;5242;49.244;6.774;2023-09-19T05:11:19;0.30;;;0.30;;
10391;SDS011;5242;49.244;6.774;2023-09-19T05:19:15;0.30;;;0.30;;
10391;SDS011;5242;49.244;6.774;2023-09-19T05:27:08;0.30;;;0.30;;
10391;SDS011;5242;49.244;6.774;2023-09-19T05:35:00;0.30;;;0.30;;
10391;SDS011;5242;49.244;6.774;2023-09-19T05:42:51;0.30;;;0.30;;
10391;SDS011;5242;49.244;6.774;2023-09-19T05:50:43;0.30;;;0.30;;
10391;SDS011;5242;49.244;6.774;2023-09-19T05:58:38;0.30;;;0.30;;
10391;SDS011;5242;49.244;6.774;2023-09-19T06:06:30;0.30;;;0.30;;
10391;SDS011;5242;49.244;6.774;2023-09-19T06:14:22;0.30;;;0.30;;
10391;SDS011;5242;49.244;6.774;2023-09-19T06:22:16;0.30;;;0.30;;
10391;SDS011;5242;49.244;6.774;2023-09-19T06:30:10;0.30;;;0.30;;
10391;SDS011;5242;49.244;6.774;2023-09-19T06:38:05;0.22;;;0.22;;
10391;SDS011;5242;49.244;6.774;2023-09-19T06:45:59;0.20;;;0.20;;
10391;SDS011;5242;49.244;6.774;2023-09-19T06:53:51;0.30;;;0.30;;
10391;SDS011;5242;49.244;6.774;2023-09-19T07:01:45;0.30;;;0.30;;
10391;SDS011;5242;49.244;6.774;2023-09-19T07:09:38;0.30;;;0.30;;
10391;SDS011;5242;49.244;6.774;2023-09-19T07:17:30;0.20;;;0.20;;
10391;SDS011;5242;49.244;6.774;2023-09-19T07:25:24;0.20;;;0.20;;
10391;SDS011;5242;49.244;6.774;2023-09-19T07:33:17;0.10;;;0.10;;
10391;SDS011;5242;49.244;6.774;2023-09-19T07:41:08;0.20;;;0.20;;
10391;SDS011;5242;49.244;6.774;2023-09-19T07:49:00;0.10;;;0.10;;
10391;SDS011;5242;49.244;6.774;2023-09-19T07:56:52;0.17;;;0.17;;
10391;SDS011;5242;49.244;6.774;2023-09-19T08:04:45;0.10;;;0.10;;
10391;SDS011;5242;49.244;6.774;2023-09-19T08:12:37;0.15;;;0.15;;
10391;SDS011;5242;49.244;6.774;2023-09-19T08:20:37;0.20;;;0.20;;
10391;SDS011;5242;49.244;6.774;2023-09-19T08:28:29;0.30;;;0.30;;
10391;SDS011;5242;49.244;6.774;2023-09-19T08:36:21;0.20;;;0.20;;
10391;SDS011;5242;49.244;6.774;2023-09-19T08:44:13;0.20;;;0.20;;
10391;SDS011;5242;49.244;6.774;2023-09-19T08:52:48;0.30;;;0.30;;
10391;SDS011;5242;49.244;6.774;2023-09-19T09:00:28;0.20;;;0.20;;
10391;SDS011;5242;49.244;6.774;2023-09-19T09:08:21;0.20;;;0.20;;
10391;SDS011;5242;49.244;6.774;2023-09-19T09:16:14;0.10;;;0.10;;
10391;SDS011;5242;49.244;6.774;2023-09-19T09:32:49;0.10;;;0.10;;
10391;SDS011;5242;49.244;6.774;2023-09-19T09:41:02;0.10;;;0.10;;
10391;SDS011;5242;49.244;6.774;2023-09-19T09:48:58;0.10;;;0.10;;
10391;SDS011;5242;49.244;6.774;2023-09-19T09:57:10;0.10;;;0.10;;
10391;SDS011;5242;49.244;6.774;2023-09-19T10:13:20;0.10;;;0.10;;
10391;SDS011;5242;49.244;6.774;2023-09-19T10:21:16;0.10;;;0.10;;
10391;SDS011;5242;49.244;6.774;2023-09-19T10:29:13;0.00;;;0.00;;
10391;SDS011;5242;49.244;6.774;2023-09-19T10:37:07;0.10;;;0.10;;
10391;SDS011;5242;49.244;6.774;2023-09-19T10:45:04;0.00;;;0.00;;
10391;SDS011;5242;49.244;6.774;2023-09-19T10:53:05;0.10;;;0.10;;
10391;SDS011;5242;49.244;6.774;2023-09-19T11:01:00;0.10;;;0.10;;
10391;SDS011;5242;49.244;6.774;2023-09-19T11:09:04;0.10;;;0.10;;
10391;SDS011;5242;49.244;6.774;2023-09-19T11:24:57;0.00;;;0.00;;
10391;SDS011;5242;49.244;6.774;2023-09-19T11:33:31;0.03;;;0.03;;
10391;SDS011;5242;49.244;6.774;2023-09-19T11:41:38;0.00;;;0.00;;
10391;SDS011;5242;49.244;6.774;2023-09-19T11:49:31;0.00;;;0.00;;
10391;SDS011;5242;49.244;6.774;2023-09-19T11:57:24;0.05;;;0.05;;
10391;SDS011;5242;49.244;6.774;2023-09-19T12:05:27;0.00;;;0.00;;
10391;SDS011;5242;49.244;6.774;2023-09-19T12:13:20;0.00;;;0.00;;
10391;SDS011;5242;49.244;6.774;2023-09-19T12:29:19;0.20;;;0.20;;
10391;SDS011;5242;49.244;6.774;2023-09-19T12:37:13;0.10;;;0.10;;
10391;SDS011;5242;49.244;6.774;2023-09-19T12:45:12;0.10;;;0.10;;
10391;SDS011;5242;49.244;6.774;2023-09-19T12:53:06;0.10;;;0.10;;
10391;SDS011;5242;49.244;6.774;2023-09-19T13:01:16;0.20;;;0.20;;
10391;SDS011;5242;49.244;6.774;2023-09-19T13:09:09;0.10;;;0.10;;
10391;SDS011;5242;49.244;6.774;2023-09-19T13:17:08;0.10;;;0.10;;
10391;SDS011;5242;49.244;6.774;2023-09-19T13:25:17;0.20;;;0.20;;
10391;SDS011;5242;49.244;6.774;2023-09-19T13:33:11;0.20;;;0.20;;
10391;SDS011;5242;49.244;6.774;2023-09-19T13:41:05;0.20;;;0.20;;
10391;SDS011;5242;49.244;6.774;2023-09-19T13:48:57;0.25;;;0.25;;
10391;SDS011;5242;49.244;6.774;2023-09-19T13:56:50;0.30;;;0.30;;
10391;SDS011;5242;49.244;6.774;2023-09-19T14:04:42;0.40;;;0.40;;
10391;SDS011;5242;49.244;6.774;2023-09-19T14:12:34;0.20;;;0.20;;
10391;SDS011;5242;49.244;6.774;2023-09-19T14:20:27;0.20;;;0.20;;
10391;SDS011;5242;49.244;6.774;2023-09-19T14:28:20;0.30;;;0.30;;
10391;SDS011;5242;49.244;6.774;2023-09-19T14:36:12;0.30;;;0.30;;
10391;SDS011;5242;49.244;6.774;2023-09-19T14:44:04;0.35;;;0.35;;
10391;SDS011;5242;49.244;6.774;2023-09-19T14:51:56;0.30;;;0.30;;
10391;SDS011;5242;49.244;6.774;2023-09-19T14:59:48;0.20;;;0.20;;
10391;SDS011;5242;49.244;6.774;2023-09-19T15:07:40;0.30;;;0.30;;
10391;SDS011;5242;49.244;6.774;2023-09-19T15:15:32;0.20;;;0.20;;
10391;SDS011;5242;49.244;6.774;2023-09-19T15:23:24;0.32;;;0.32;;
10391;SDS011;5242;49.244;6.774;2023-09-19T15:31:23;0.30;;;0.30;;
10391;SDS011;5242;49.244;6.774;2023-09-19T15:39:15;0.30;;;0.30;;
10391;SDS011;5242;49.244;6.774;2023-09-19T15:47:08;0.30;;;0.30;;
10391;SDS011;5242;49.244;6.774;2023-09-19T15:54:59;0.20;;;0.20;;
10391;SDS011;5242;49.244;6.774;2023-09-19T16:02:55;0.20;;;0.20;;
10391;SDS011;5242;49.244;6.774;2023-09-19T16:10:47;0.20;;;0.20;;
10391;SDS011;5242;49.244;6.774;2023-09-19T16:18:39;0.20;;;0.20;;
10391;SDS011;5242;49.244;6.774;2023-09-19T16:26:32;0.20;;;0.20;;
10391;SDS011;5242;49.244;6.774;2023-09-19T16:34:23;0.20;;;0.20;;
10391;SDS011;5242;49.244;6.774;2023-09-19T16:42:15;0.20;;;0.20;;
10391;SDS011;5242;49.244;6.774;2023-09-19T16:50:12;0.20;;;0.20;;
10391;SDS011;5242;49.244;6.774;2023-09-19T16:58:04;0.20;;;0.20;;
10391;SDS011;5242;49.244;6.774;2023-09-19T17:05:57;0.15;;;0.15;;
10391;SDS011;5242;49.244;6.774;2023-09-19T17:13:52;0.20;;;0.20;;
10391;SDS011;5242;49.244;6.774;2023-09-19T17:21:45;0.20;;;0.20;;
10391;SDS011;5242;49.244;6.774;2023-09-19T17:29:37;0.40;;;0.40;;
10391;SDS011;5242;49.244;6.774;2023-09-19T17:37:29;0.20;;;0.20;;
10391;SDS011;5242;49.244;6.774;2023-09-19T17:45:20;0.30;;;0.30;;
10391;SDS011;5242;49.244;6.774;2023-09-19T17:53:13;0.20;;;0.20;;
10391;SDS011;5242;49.244;6.774;2023-09-19T18:01:07;0.45;;;0.45;;
10391;SDS011;5242;49.244;6.774;2023-09-19T18:09:01;0.50;;;0.50;;
10391;SDS011;5242;49.244;6.774;2023-09-19T18:16:53;0.20;;;0.20;;
10391;SDS011;5242;49.244;6.774;2023-09-19T18:24:48;0.30;;;0.30;;
10391;SDS011;5242;49.244;6.774;2023-09-19T18:32:40;0.30;;;0.30;;
10391;SDS011;5242;49.244;6.774;2023-09-19T18:40:33;0.30;;;0.30;;
10391;SDS011;5242;49.244;6.774;2023-09-19T18:48:25;0.22;;;0.22;;
10391;SDS011;5242;49.244;6.774;2023-09-19T18:56:16;0.30;;;0.30;;
10391;SDS011;5242;49.244;6.774;2023-09-19T19:04:10;0.30;;;0.30;;
10391;SDS011;5242;49.244;6.774;2023-09-19T19:12:02;0.30;;;0.30;;
10391;SDS011;5242;49.244;6.774;2023-09-19T19:19:54;0.30;;;0.30;;
10391;SDS011;5242;49.244;6.774;2023-09-19T19:27:46;0.25;;;0.25;;
10391;SDS011;5242;49.244;6.774;2023-09-19T19:35:39;0.30;;;0.30;;
10391;SDS011;5242;49.244;6.774;2023-09-19T19:43:32;0.30;;;0.30;;
10391;SDS011;5242;49.244;6.774;2023-09-19T19:51:25;0.30;;;0.30;;
10391;SDS011;5242;49.244;6.774;2023-09-19T19:59:16;0.30;;;0.30;;
10391;SDS011;5242;49.244;6.774;2023-09-19T20:07:09;0.30;;;0.30;;
10391;SDS011;5242;49.244;6.774;2023-09-19T20:15:04;0.40;;;0.40;;
10391;SDS011;5242;49.244;6.774;2023-09-19T20:22:56;0.30;;;0.30;;
10391;SDS011;5242;49.244;6.774;2023-09-19T20:30:48;0.30;;;0.30;;
10391;SDS011;5242;49.244;6.774;2023-09-19T20:38:40;0.30;;;0.30;;
10391;SDS011;5242;49.244;6.774;2023-09-19T20:46:32;0.30;;;0.30;;
10391;SDS011;5242;49.244;6.774;2023-09-19T20:54:30;0.30;;;0.30;;
10391;SDS011;5242;49.244;6.774;2023-09-19T21:02:22;0.30;;;0.30;;
10391;SDS011;5242;49.244;6.774;2023-09-19T21:10:14;0.30;;;0.30;;
10391;SDS011;5242;49.244;6.774;2023-09-19T21:18:06;0.30;;;0.30;;
10391;SDS011;5242;49.244;6.774;2023-09-19T21:25:58;0.30;;;0.30;;
10391;SDS011;5242;49.244;6.774;2023-09-19T21:33:50;0.30;;;0.30;;
10391;SDS011;5242;49.244;6.774;2023-09-19T21:41:42;0.20;;;0.20;;
10391;SDS011;5242;49.244;6.774;2023-09-19T21:49:33;0.30;;;0.30;;
10391;SDS011;5242;49.244;6.774;2023-09-19T21:57:25;0.30;;;0.30;;
10391;SDS011;5242;49.244;6.774;2023-09-19T22:05:17;0.30;;;0.30;;
10391;SDS011;5242;49.244;6.774;2023-09-19T22:13:09;0.30;;;0.30;;
10391;SDS011;5242;49.244;6.774;2023-09-19T22:21:04;0.30;;;0.30;;
10391;SDS011;5242;49.244;6.774;2023-09-19T22:29:03;0.30;;;0.30;;
10391;SDS011;5242;49.244;6.774;2023-09-19T22:36:55;0.30;;;0.30;;
10391;SDS011;5242;49.244;6.774;2023-09-19T22:44:49;0.70;;;0.70;;
10391;SDS011;5242;49.244;6.774;2023-09-19T22:52:41;0.30;;;0.30;;
10391;SDS011;5242;49.244;6.774;2023-09-19T23:00:38;0.30;;;0.30;;
10391;SDS011;5242;49.244;6.774;2023-09-19T23:08:30;0.30;;;0.30;;
10391;SDS011;5242;49.244;6.774;2023-09-19T23:16:23;0.40;;;0.40;;
10391;SDS011;5242;49.244;6.774;2023-09-19T23:24:24;0.30;;;0.30;;
10391;SDS011;5242;49.244;6.774;2023-09-19T23:32:20;0.30;;;0.30;;
10391;SDS011;5242;49.244;6.774;2023-09-19T23:40:13;0.30;;;0.30;;
10391;SDS011;5242;49.244;6.774;2023-09-19T23:48:11;0.30;;;0.30;;
10391;SDS011;5242;49.244;6.774;2023-09-19T23:56:03;0.30;;;0.30;;
